Time;durP1;ratioP1;P1;durP2;ratioP2;P2;SDS_P1;SDS_P2;PMS_P1;PMS_P2;Temp;Humidity;BMP_temperature;BMP_pressure;BME280_temperature;BME280_humidity;BME280_pressure;Samples;Min_cycle;Max_cycle;Signal;HPM_P1;HPM_P2
2023/08/22 00:00:42;;;;;;;5.47;2.40;;;19.80;99.90;;;;;;2507680;23;20456;-73
2023/08/22 00:01:42;;;;;;;5.03;2.65;;;19.80;99.90;;;;;;2507826;23;20034;-73
2023/08/22 00:02:43;;;;;;;4.40;2.90;;;19.80;99.90;;;;;;2506500;23;20013;-73
2023/08/22 00:03:43;;;;;;;5.53;3.25;;;19.80;99.90;;;;;;2507985;23;20014;-73
2023/08/22 00:04:44;;;;;;;3.78;2.50;;;19.80;99.90;;;;;;2507621;23;20086;-73
2023/08/22 00:05:44;;;;;;;7.40;2.83;;;19.80;99.90;;;;;;2507876;23;20014;-73
2023/08/22 00:06:45;;;;;;;6.68;2.80;;;19.80;99.90;;;;;;2508035;23;20007;-73
2023/08/22 00:07:45;;;;;;;4.30;2.65;;;19.80;99.90;;;;;;2505340;23;20021;-73
2023/08/22 00:08:46;;;;;;;5.60;2.65;;;19.80;99.90;;;;;;2494733;23;20040;-73
2023/08/22 00:09:46;;;;;;;4.38;2.50;;;19.80;99.90;;;;;;2495540;23;20007;-73
2023/08/22 00:10:47;;;;;;;5.55;2.97;;;19.80;99.90;;;;;;2506740;23;20017;-73
2023/08/22 00:11:47;;;;;;;9.98;2.85;;;19.70;99.90;;;;;;2507483;23;20010;-73
2023/08/22 00:12:48;;;;;;;4.40;2.92;;;19.70;99.90;;;;;;2497150;23;20019;-73
2023/08/22 00:13:48;;;;;;;8.38;2.92;;;19.70;99.90;;;;;;2494983;23;20026;-73
2023/08/22 00:14:50;;;;;;;5.88;2.80;;;19.70;99.90;;;;;;2495748;23;20026;-73
2023/08/22 00:15:51;;;;;;;4.10;2.60;;;19.70;99.90;;;;;;2495554;23;19999;-73
2023/08/22 00:16:51;;;;;;;6.47;3.05;;;19.70;99.90;;;;;;2495474;23;20344;-73
2023/08/22 00:17:52;;;;;;;5.07;2.90;;;19.70;99.90;;;;;;2495912;23;20082;-73
2023/08/22 00:18:52;;;;;;;4.00;2.95;;;19.70;99.90;;;;;;2493678;23;20038;-73
2023/08/22 00:19:53;;;;;;;3.20;2.40;;;19.70;99.90;;;;;;2496197;23;20014;-73
2023/08/22 00:20:53;;;;;;;4.28;2.58;;;19.70;99.90;;;;;;2495753;23;20011;-73
2023/08/22 00:21:54;;;;;;;6.80;2.58;;;19.70;99.90;;;;;;2496878;23;20079;-73
2023/08/22 00:22:54;;;;;;;3.70;2.60;;;19.60;99.90;;;;;;2481810;23;20062;-73
2023/08/22 00:23:55;;;;;;;4.72;2.65;;;19.60;99.90;;;;;;2484494;23;20007;-73
2023/08/22 00:24:55;;;;;;;3.65;2.40;;;19.60;99.90;;;;;;2495803;23;20018;-73
2023/08/22 00:25:56;;;;;;;5.32;3.03;;;19.60;99.90;;;;;;2496008;23;20011;-73
2023/08/22 00:26:57;;;;;;;4.25;2.88;;;19.60;99.90;;;;;;2495307;23;20392;-73
2023/08/22 00:27:58;;;;;;;3.38;2.67;;;19.60;99.90;;;;;;2495925;23;20003;-73
2023/08/22 00:28:58;;;;;;;5.50;3.15;;;19.60;99.90;;;;;;2496711;23;20023;-73
2023/08/22 00:29:59;;;;;;;4.90;2.85;;;19.60;99.90;;;;;;2495370;23;20029;-73
2023/08/22 00:30:59;;;;;;;6.97;2.80;;;19.60;99.90;;;;;;2496190;23;20019;-73
2023/08/22 00:32:00;;;;;;;4.75;2.58;;;19.60;99.90;;;;;;2496158;23;20050;-73
2023/08/22 00:33:00;;;;;;;3.40;2.63;;;19.60;99.90;;;;;;2496336;23;20050;-73
2023/08/22 00:34:02;;;;;;;3.92;2.55;;;19.60;99.90;;;;;;2496241;23;20041;-73
2023/08/22 00:35:02;;;;;;;9.63;2.88;;;19.60;99.90;;;;;;2495310;23;20086;-72
2023/08/22 00:36:03;;;;;;;5.75;3.00;;;19.50;99.90;;;;;;2495618;23;20014;-73
2023/08/22 00:37:04;;;;;;;4.43;2.75;;;19.60;99.90;;;;;;2496017;23;20009;-73
2023/08/22 00:38:04;;;;;;;6.70;3.03;;;19.50;99.90;;;;;;2496051;23;20023;-73
2023/08/22 00:39:05;;;;;;;7.30;3.17;;;19.50;99.90;;;;;;2496560;23;20003;-72
2023/08/22 00:40:06;;;;;;;4.55;2.67;;;19.50;99.90;;;;;;2495862;23;20070;-73
2023/08/22 00:41:07;;;;;;;4.80;2.45;;;19.50;99.90;;;;;;2496816;23;19996;-72
2023/08/22 00:42:07;;;;;;;4.32;2.50;;;19.50;99.90;;;;;;2495803;23;19999;-72
2023/08/22 00:43:08;;;;;;;5.53;2.65;;;19.50;99.90;;;;;;2484128;23;20095;-73
2023/08/22 00:44:09;;;;;;;6.82;3.00;;;19.50;99.90;;;;;;2484205;23;20007;-72
2023/08/22 00:45:09;;;;;;;6.85;2.35;;;19.50;99.90;;;;;;2484043;23;20389;-73
2023/08/22 00:46:10;;;;;;;4.30;2.42;;;19.50;99.90;;;;;;2496948;23;20003;-73
2023/08/22 00:47:11;;;;;;;6.15;2.70;;;19.50;99.90;;;;;;2495842;23;20492;-73
2023/08/22 00:48:11;;;;;;;4.15;2.83;;;19.50;99.90;;;;;;2496711;23;19995;-73
2023/08/22 00:49:13;;;;;;;5.30;2.72;;;19.40;99.90;;;;;;2483753;23;20516;-73
2023/08/22 00:50:14;;;;;;;4.65;2.65;;;19.40;99.90;;;;;;2484319;23;20003;-73
2023/08/22 00:51:17;;;;;;;5.22;2.60;;;19.40;99.90;;;;;;2496289;23;20007;-72
2023/08/22 00:52:17;;;;;;;3.83;2.40;;;19.50;99.90;;;;;;2495846;23;20194;-73
2023/08/22 00:53:18;;;;;;;5.35;2.88;;;19.40;99.90;;;;;;2483268;23;20103;-73
2023/08/22 00:54:20;;;;;;;8.45;2.83;;;19.40;99.90;;;;;;2482799;23;20007;-73
2023/08/22 00:55:20;;;;;;;6.15;3.30;;;19.40;99.90;;;;;;2496520;23;20400;-73
2023/08/22 00:56:21;;;;;;;5.97;3.17;;;19.40;99.90;;;;;;2496797;23;20003;-73
2023/08/22 00:57:21;;;;;;;4.75;2.90;;;19.40;99.90;;;;;;2496341;23;20313;-73
2023/08/22 00:58:24;;;;;;;5.40;2.58;;;19.40;99.90;;;;;;2496276;23;20010;-73
2023/08/22 00:59:26;;;;;;;4.97;3.08;;;19.40;99.90;;;;;;2496437;23;20369;-72
2023/08/22 01:00:26;;;;;;;6.07;2.90;;;19.40;99.90;;;;;;2497281;23;20845;-73
2023/08/22 01:01:27;;;;;;;6.70;2.90;;;19.40;99.90;;;;;;2495742;23;20491;-72
2023/08/22 01:02:28;;;;;;;6.88;3.15;;;19.40;99.90;;;;;;2494089;23;20039;-73
2023/08/22 01:03:28;;;;;;;4.63;3.08;;;19.40;99.90;;;;;;2496560;23;20058;-72
2023/08/22 01:04:29;;;;;;;4.50;3.00;;;19.40;99.90;;;;;;2496011;23;20063;-72
2023/08/22 01:05:33;;;;;;;6.78;3.13;;;19.40;99.90;;;;;;2483980;23;20031;-73
2023/08/22 01:07:07;;;;;;;8.68;3.50;;;19.40;99.90;;;;;;2483865;23;20008;-72
2023/08/22 01:08:21;;;;;;;5.00;3.05;;;19.40;99.90;;;;;;2495330;23;20007;-73
2023/08/22 01:09:32;;;;;;;7.65;3.03;;;19.30;99.90;;;;;;2495875;23;20007;-73
2023/08/22 01:10:38;;;;;;;8.65;3.20;;;19.30;99.90;;;;;;2496780;23;20008;-72
2023/08/22 01:11:44;;;;;;;7.70;3.50;;;19.30;99.90;;;;;;2496710;23;20008;-72
2023/08/22 01:12:57;;;;;;;6.22;3.58;;;19.30;99.90;;;;;;2494856;23;20015;-72
2023/08/22 01:14:03;;;;;;;5.90;3.22;;;19.30;99.90;;;;;;2495831;23;20007;-72
2023/08/22 01:15:14;;;;;;;8.02;3.40;;;19.30;99.90;;;;;;2497127;23;20437;-72
2023/08/22 01:16:15;;;;;;;3.28;2.70;;;19.30;99.90;;;;;;2495853;23;20013;-73
2023/08/22 01:17:17;;;;;;;4.75;2.90;;;19.30;99.90;;;;;;2496296;23;20078;-73
2023/08/22 01:18:18;;;;;;;9.20;3.15;;;19.30;99.90;;;;;;2483589;23;20031;-73
2023/08/22 01:19:19;;;;;;;5.13;2.55;;;19.30;99.90;;;;;;2483828;23;20007;-73
2023/08/22 01:20:21;;;;;;;4.97;2.80;;;19.30;99.90;;;;;;2495779;23;20011;-73
2023/08/22 01:21:23;;;;;;;3.20;2.45;;;19.30;99.90;;;;;;2495495;23;20498;-72
2023/08/22 01:22:26;;;;;;;3.33;2.60;;;19.30;99.90;;;;;;2483041;23;20007;-73
2023/08/22 01:23:26;;;;;;;5.70;2.80;;;19.30;99.90;;;;;;2483062;23;20082;-73
2023/08/22 01:24:27;;;;;;;5.90;2.45;;;19.30;99.90;;;;;;2495724;23;20007;-73
2023/08/22 01:25:29;;;;;;;11.05;3.65;;;19.30;99.90;;;;;;2483866;23;20036;-73
2023/08/22 01:26:30;;;;;;;9.65;3.80;;;19.30;99.90;;;;;;2483858;23;20011;-73
2023/08/22 01:27:39;;;;;;;6.47;3.25;;;19.30;99.90;;;;;;2496199;23;20019;-73
2023/08/22 01:28:45;;;;;;;7.93;3.00;;;19.30;99.90;;;;;;2496238;23;20435;-73
2023/08/22 01:29:58;;;;;;;3.65;2.50;;;19.30;99.90;;;;;;2496627;23;20035;-73
2023/08/22 01:31:22;;;;;;;6.43;3.20;;;19.30;99.90;;;;;;2495845;23;20023;-73
2023/08/22 01:32:32;;;;;;;3.30;2.60;;;19.20;99.90;;;;;;2495802;23;20086;-73
2023/08/22 01:33:37;;;;;;;6.55;3.33;;;19.20;99.90;;;;;;2496065;23;20092;-73
2023/08/22 01:34:40;;;;;;;3.70;2.80;;;19.20;99.90;;;;;;2495679;23;20458;-73
2023/08/22 01:35:44;;;;;;;7.18;2.95;;;19.20;99.90;;;;;;2496232;23;20035;-73
2023/08/22 01:36:46;;;;;;;3.70;2.83;;;19.20;99.90;;;;;;2495021;23;20015;-73
2023/08/22 01:37:49;;;;;;;4.07;2.90;;;19.20;99.90;;;;;;2495862;23;20033;-73
2023/08/22 01:38:50;;;;;;;9.38;3.33;;;19.30;99.90;;;;;;2495783;23;20011;-73
2023/08/22 01:39:57;;;;;;;4.32;2.67;;;19.20;99.90;;;;;;2496020;23;20018;-73
2023/08/22 01:40:58;;;;;;;5.85;2.70;;;19.30;99.90;;;;;;2495783;23;20011;-73
2023/08/22 01:41:59;;;;;;;3.80;2.88;;;19.20;99.90;;;;;;2483470;23;20039;-73
2023/08/22 01:43:00;;;;;;;3.92;2.40;;;19.20;99.90;;;;;;2483371;23;20699;-73
2023/08/22 01:44:01;;;;;;;5.80;2.50;;;19.20;99.90;;;;;;2495525;23;20047;-73
2023/08/22 01:45:02;;;;;;;6.03;3.08;;;19.20;99.90;;;;;;2495612;23;20030;-73
2023/08/22 01:46:05;;;;;;;6.50;3.25;;;19.20;99.90;;;;;;2496187;23;20094;-73
2023/08/22 01:47:06;;;;;;;11.63;3.50;;;19.20;99.90;;;;;;2495888;23;20007;-73
2023/08/22 01:48:06;;;;;;;3.63;2.58;;;19.20;99.90;;;;;;2483762;23;20000;-73
2023/08/22 01:49:07;;;;;;;5.57;2.75;;;19.20;99.90;;;;;;2484110;23;20467;-73
2023/08/22 01:50:08;;;;;;;5.07;2.60;;;19.20;99.90;;;;;;2495930;23;20007;-73
2023/08/22 01:51:08;;;;;;;5.82;2.65;;;19.20;99.90;;;;;;2496444;23;20011;-73
2023/08/22 01:52:09;;;;;;;6.47;2.85;;;19.20;99.90;;;;;;2495341;23;20436;-73
2023/08/22 01:53:09;;;;;;;4.20;2.65;;;19.30;99.90;;;;;;2495709;23;20035;-73
2023/08/22 01:54:10;;;;;;;6.38;2.78;;;19.20;99.90;;;;;;2496245;23;19999;-73
2023/08/22 01:55:12;;;;;;;7.30;3.03;;;19.20;99.90;;;;;;2496082;23;20336;-73
2023/08/22 01:56:12;;;;;;;5.18;2.40;;;19.30;99.90;;;;;;2496135;23;20001;-73
2023/08/22 01:57:13;;;;;;;9.13;3.58;;;19.20;99.90;;;;;;2496424;23;20522;-73
2023/08/22 01:58:14;;;;;;;5.60;3.10;;;19.30;99.90;;;;;;2496153;23;20003;-73
2023/08/22 01:59:15;;;;;;;3.28;2.55;;;19.20;99.90;;;;;;2483956;23;20018;-73
2023/08/22 02:00:15;;;;;;;7.32;3.20;;;19.30;99.90;;;;;;2483522;23;20015;-73
2023/08/22 02:01:16;;;;;;;3.35;2.60;;;19.30;99.90;;;;;;2495647;23;20095;-73
2023/08/22 02:02:16;;;;;;;6.35;2.60;;;19.30;99.90;;;;;;2495554;23;20003;-73
2023/08/22 02:03:17;;;;;;;4.65;2.50;;;19.30;99.90;;;;;;2496507;23;20003;-73
2023/08/22 02:04:17;;;;;;;5.22;2.80;;;19.20;99.90;;;;;;2496150;23;20055;-73
2023/08/22 02:05:18;;;;;;;4.78;2.47;;;19.30;99.90;;;;;;2496606;23;20553;-73
2023/08/22 02:06:18;;;;;;;5.53;3.28;;;19.30;99.90;;;;;;2495715;23;20110;-73
2023/08/22 02:07:19;;;;;;;6.70;3.10;;;19.20;99.90;;;;;;2496372;23;20098;-73
2023/08/22 02:08:19;;;;;;;7.50;2.85;;;19.30;99.90;;;;;;2495909;23;20034;-73
2023/08/22 02:09:20;;;;;;;4.07;1.95;;;19.30;99.90;;;;;;2496304;23;20062;-73
2023/08/22 02:10:20;;;;;;;2.85;2.35;;;19.30;99.90;;;;;;2495681;23;20004;-73
2023/08/22 02:11:21;;;;;;;6.25;2.80;;;19.30;99.90;;;;;;2496546;23;19999;-73
2023/08/22 02:12:21;;;;;;;8.95;2.92;;;19.30;99.90;;;;;;2494088;23;20166;-73
2023/08/22 02:13:25;;;;;;;4.53;2.85;;;19.20;99.90;;;;;;2496147;23;20043;-73
2023/08/22 02:14:25;;;;;;;4.63;2.85;;;19.20;99.90;;;;;;2496039;23;20442;-73
2023/08/22 02:15:26;;;;;;;5.60;2.40;;;19.30;99.90;;;;;;2496084;23;20007;-73
2023/08/22 02:16:27;;;;;;;2.95;2.53;;;19.30;99.90;;;;;;2496234;23;20011;-73
2023/08/22 02:17:27;;;;;;;5.25;2.67;;;19.30;99.90;;;;;;2494765;23;20048;-73
2023/08/22 02:18:28;;;;;;;5.28;2.78;;;19.30;99.90;;;;;;2496499;23;20008;-73
2023/08/22 02:19:28;;;;;;;4.80;2.75;;;19.30;99.90;;;;;;2496118;23;20090;-73
2023/08/22 02:20:29;;;;;;;5.05;2.58;;;19.30;99.90;;;;;;2496180;23;20018;-73
2023/08/22 02:21:29;;;;;;;2.58;2.25;;;19.30;99.90;;;;;;2495762;23;20099;-73
2023/08/22 02:22:30;;;;;;;4.82;2.90;;;19.30;99.90;;;;;;2495438;23;20444;-73
2023/08/22 02:23:32;;;;;;;4.53;2.85;;;19.30;99.90;;;;;;2495604;23;20014;-73
2023/08/22 02:24:32;;;;;;;7.50;3.00;;;19.30;99.90;;;;;;2484141;23;20012;-73
2023/08/22 02:25:33;;;;;;;7.00;3.20;;;19.30;99.90;;;;;;2483179;23;20122;-73
2023/08/22 02:26:33;;;;;;;5.60;3.40;;;19.30;99.90;;;;;;2483738;23;20119;-73
2023/08/22 02:27:34;;;;;;;4.25;2.53;;;19.30;99.90;;;;;;2496319;23;20007;-73
2023/08/22 02:28:35;;;;;;;3.22;2.78;;;19.30;99.90;;;;;;2496137;23;20035;-73
2023/08/22 02:29:35;;;;;;;4.35;2.65;;;19.30;99.90;;;;;;2496378;23;20620;-73
2023/08/22 02:30:36;;;;;;;6.32;2.95;;;19.30;99.90;;;;;;2496056;23;20004;-73
2023/08/22 02:31:37;;;;;;;5.70;2.58;;;19.30;99.90;;;;;;2496313;23;20078;-73
2023/08/22 02:32:38;;;;;;;5.60;2.70;;;19.30;99.90;;;;;;2495679;23;20044;-73
2023/08/22 02:33:38;;;;;;;3.40;2.45;;;19.30;99.90;;;;;;2495766;23;19999;-73
2023/08/22 02:34:39;;;;;;;8.48;2.92;;;19.30;99.90;;;;;;2496736;23;20007;-73
2023/08/22 02:35:39;;;;;;;5.60;3.30;;;19.30;99.90;;;;;;2495893;23;20007;-73
2023/08/22 02:36:40;;;;;;;6.18;3.10;;;19.30;99.90;;;;;;2483294;23;20490;-73
2023/08/22 02:37:40;;;;;;;8.35;3.33;;;19.30;99.90;;;;;;2484015;23;20039;-73
2023/08/22 02:38:41;;;;;;;5.05;3.25;;;19.30;99.90;;;;;;2495910;23;20496;-73
2023/08/22 02:39:41;;;;;;;3.63;2.88;;;19.30;99.90;;;;;;2495861;23;20082;-73
2023/08/22 02:40:42;;;;;;;5.30;2.95;;;19.30;99.90;;;;;;2496116;23;20317;-73
2023/08/22 02:41:42;;;;;;;7.57;3.22;;;19.30;99.90;;;;;;2495851;23;20014;-73
2023/08/22 02:42:43;;;;;;;3.47;2.80;;;19.30;99.90;;;;;;2495650;23;20018;-73
2023/08/22 02:43:44;;;;;;;3.25;2.45;;;19.30;99.90;;;;;;2494740;23;20007;-73
2023/08/22 02:44:44;;;;;;;5.43;2.92;;;19.30;99.90;;;;;;2495398;23;20006;-73
2023/08/22 02:45:45;;;;;;;5.25;2.97;;;19.30;99.90;;;;;;2483624;23;20090;-73
2023/08/22 02:46:46;;;;;;;5.20;3.00;;;19.30;99.90;;;;;;2483813;23;20007;-73
2023/08/22 02:47:46;;;;;;;4.57;2.88;;;19.30;99.90;;;;;;2496039;23;20038;-73
2023/08/22 02:48:47;;;;;;;5.28;3.38;;;19.30;99.90;;;;;;2496437;23;20015;-73
2023/08/22 02:49:48;;;;;;;6.72;3.88;;;19.30;99.90;;;;;;2495662;23;20010;-73
2023/08/22 02:50:49;;;;;;;7.07;3.20;;;19.20;99.90;;;;;;2494060;23;20007;-73
2023/08/22 02:51:50;;;;;;;5.88;3.00;;;19.30;99.90;;;;;;2495963;23;20011;-73
2023/08/22 02:52:51;;;;;;;8.30;3.78;;;19.30;99.90;;;;;;2495516;23;20027;-73
2023/08/22 02:53:51;;;;;;;4.45;2.92;;;19.30;99.90;;;;;;2495270;23;20030;-73
2023/08/22 02:54:52;;;;;;;4.07;3.00;;;19.20;99.90;;;;;;2496476;23;20498;-73
2023/08/22 02:55:52;;;;;;;6.82;2.78;;;19.20;99.90;;;;;;2482988;23;20004;-73
2023/08/22 02:56:53;;;;;;;4.75;3.40;;;19.30;99.90;;;;;;2483706;23;20010;-73
2023/08/22 02:57:54;;;;;;;7.45;3.53;;;19.30;99.90;;;;;;2495664;23;20011;-73
2023/08/22 02:58:54;;;;;;;8.00;3.65;;;19.30;99.90;;;;;;2495591;23;20015;-73
2023/08/22 02:59:55;;;;;;;4.68;3.15;;;19.30;99.90;;;;;;2496017;23;20003;-73
2023/08/22 03:00:55;;;;;;;4.05;2.78;;;19.30;99.90;;;;;;2495966;23;20038;-73
2023/08/22 03:01:56;;;;;;;4.10;2.90;;;19.20;99.90;;;;;;2494600;23;20008;-73
2023/08/22 03:02:56;;;;;;;3.10;2.78;;;19.20;99.90;;;;;;2495032;23;20526;-73
2023/08/22 03:03:57;;;;;;;4.90;2.92;;;19.20;99.90;;;;;;2495646;23;20608;-73
2023/08/22 03:04:58;;;;;;;5.10;3.20;;;19.20;99.90;;;;;;2483952;23;20810;-73
2023/08/22 03:06:00;;;;;;;7.43;3.38;;;19.20;99.90;;;;;;2483672;23;20449;-73
2023/08/22 03:07:01;;;;;;;4.50;2.90;;;19.20;99.90;;;;;;2495673;23;20003;-73
2023/08/22 03:08:02;;;;;;;6.65;3.78;;;19.20;99.90;;;;;;2495683;23;20011;-73
2023/08/22 03:09:03;;;;;;;6.95;3.58;;;19.20;99.90;;;;;;2483097;23;20011;-73
2023/08/22 03:10:04;;;;;;;7.25;3.30;;;19.20;99.90;;;;;;2483504;23;20004;-73
2023/08/22 03:11:04;;;;;;;6.45;3.13;;;19.20;99.90;;;;;;2483287;23;20014;-73
2023/08/22 03:12:05;;;;;;;6.07;3.00;;;19.20;99.90;;;;;;2495252;23;20011;-73
2023/08/22 03:13:05;;;;;;;3.95;3.35;;;19.20;99.90;;;;;;2496022;23;20011;-73
2023/08/22 03:14:07;;;;;;;4.18;3.42;;;19.20;99.90;;;;;;2495549;23;20009;-73
2023/08/22 03:15:08;;;;;;;4.95;3.72;;;19.20;99.90;;;;;;2495759;23;20010;-73
2023/08/22 03:16:08;;;;;;;10.63;4.40;;;19.10;99.90;;;;;;2483688;23;20031;-73
2023/08/22 03:17:09;;;;;;;6.00;3.63;;;19.10;99.90;;;;;;2483372;23;20003;-73
2023/08/22 03:18:09;;;;;;;3.58;3.28;;;19.10;99.90;;;;;;2496198;23;19995;-73
2023/08/22 03:19:10;;;;;;;10.70;4.50;;;19.10;99.90;;;;;;2495836;23;20098;-73
2023/08/22 03:20:11;;;;;;;7.35;3.20;;;19.10;99.90;;;;;;2495937;23;20031;-73
2023/08/22 03:21:12;;;;;;;4.85;3.65;;;19.10;99.90;;;;;;2495970;23;20314;-73
2023/08/22 03:22:12;;;;;;;5.85;2.80;;;19.10;99.90;;;;;;2482322;23;20031;-73
2023/08/22 03:23:14;;;;;;;3.70;3.17;;;19.10;99.90;;;;;;2481469;23;19996;-73
2023/08/22 03:24:14;;;;;;;4.05;3.13;;;19.10;99.90;;;;;;2495253;23;20090;-73
2023/08/22 03:25:15;;;;;;;6.30;3.85;;;19.10;99.90;;;;;;2495365;23;20015;-73
2023/08/22 03:26:16;;;;;;;5.10;3.75;;;19.10;99.90;;;;;;2483250;23;20014;-73
2023/08/22 03:27:16;;;;;;;4.95;3.15;;;19.10;99.90;;;;;;2495276;23;20004;-73
2023/08/22 03:28:17;;;;;;;6.38;4.35;;;19.10;99.90;;;;;;2495582;23;20007;-73
2023/08/22 03:29:17;;;;;;;6.25;4.15;;;19.10;99.90;;;;;;2496626;23;20059;-73
2023/08/22 03:30:18;;;;;;;6.43;3.70;;;19.10;99.90;;;;;;2495551;23;20000;-73
2023/08/22 03:31:22;;;;;;;4.50;2.63;;;19.10;99.90;;;;;;2495614;23;20071;-73
2023/08/22 03:32:22;;;;;;;5.75;3.45;;;19.10;99.90;;;;;;2495270;23;20086;-73
2023/08/22 03:33:24;;;;;;;4.35;3.50;;;19.00;99.90;;;;;;2495673;23;19999;-73
2023/08/22 03:34:24;;;;;;;6.20;3.72;;;19.00;99.90;;;;;;2496238;23;20031;-73
2023/08/22 03:35:25;;;;;;;5.82;4.07;;;19.00;99.90;;;;;;2496260;23;20496;-73
2023/08/22 03:36:25;;;;;;;7.65;4.10;;;19.00;99.90;;;;;;2494033;23;20110;-73
2023/08/22 03:37:26;;;;;;;7.07;4.05;;;19.00;99.90;;;;;;2496512;23;20079;-73
2023/08/22 03:38:26;;;;;;;5.68;3.72;;;19.00;99.90;;;;;;2494785;23;20007;-73
2023/08/22 03:39:27;;;;;;;6.38;3.90;;;19.00;99.90;;;;;;2496140;23;20038;-73
2023/08/22 03:40:27;;;;;;;9.15;3.58;;;19.00;99.90;;;;;;2495949;23;20039;-73
2023/08/22 03:41:28;;;;;;;6.97;4.07;;;19.00;99.90;;;;;;2494139;23;20102;-73
2023/08/22 03:42:28;;;;;;;6.60;3.70;;;19.00;99.90;;;;;;2495583;23;20420;-73
2023/08/22 03:43:29;;;;;;;7.45;4.10;;;19.00;99.90;;;;;;2495835;23;20015;-73
2023/08/22 03:44:30;;;;;;;5.68;3.47;;;19.00;99.90;;;;;;2495376;23;20045;-73
2023/08/22 03:45:30;;;;;;;6.22;3.72;;;19.00;99.90;;;;;;2495545;23;20011;-73
2023/08/22 03:46:31;;;;;;;6.22;4.03;;;19.00;99.90;;;;;;2495110;23;20010;-73
2023/08/22 03:47:31;;;;;;;8.65;4.22;;;19.00;99.90;;;;;;2483329;23;20603;-73
2023/08/22 03:48:32;;;;;;;8.93;4.32;;;19.00;99.90;;;;;;2483111;23;20068;-73
2023/08/22 03:49:32;;;;;;;6.80;4.40;;;19.00;99.90;;;;;;2495092;23;20007;-73
2023/08/22 03:50:33;;;;;;;7.20;4.72;;;19.00;99.90;;;;;;2496232;23;20472;-73
2023/08/22 03:51:34;;;;;;;8.52;4.82;;;19.00;99.90;;;;;;2483125;23;20306;-73
2023/08/22 03:52:34;;;;;;;10.20;4.60;;;19.00;99.90;;;;;;2482415;23;20441;-73
2023/08/22 03:53:36;;;;;;;4.57;4.00;;;19.00;99.90;;;;;;2496239;23;20012;-73
2023/08/22 03:54:36;;;;;;;7.45;4.40;;;19.00;99.90;;;;;;2496207;23;20090;-73
2023/08/22 03:55:37;;;;;;;7.78;4.15;;;19.00;99.90;;;;;;2496254;23;20003;-73
2023/08/22 03:56:38;;;;;;;6.28;4.25;;;18.90;99.90;;;;;;2496754;23;20055;-73
2023/08/22 03:57:38;;;;;;;9.88;4.22;;;19.00;99.90;;;;;;2496810;23;20008;-73
2023/08/22 03:58:39;;;;;;;6.22;4.22;;;18.90;99.90;;;;;;2497115;23;20007;-73
2023/08/22 03:59:39;;;;;;;7.80;4.60;;;18.90;99.90;;;;;;2496185;23;20404;-73
2023/08/22 04:00:40;;;;;;;8.88;4.75;;;18.90;99.90;;;;;;2496369;23;20340;-73
2023/08/22 04:01:40;;;;;;;5.05;4.53;;;18.90;99.90;;;;;;2496757;23;20098;-73
2023/08/22 04:02:41;;;;;;;7.28;4.90;;;18.90;99.90;;;;;;2495889;23;20015;-73
2023/08/22 04:03:41;;;;;;;6.40;4.38;;;18.90;99.90;;;;;;2496222;23;20070;-73
2023/08/22 04:04:42;;;;;;;7.93;5.07;;;18.90;99.90;;;;;;2497134;23;20050;-73
2023/08/22 04:05:42;;;;;;;6.25;4.47;;;18.90;99.90;;;;;;2497012;23;20007;-73
2023/08/22 04:06:43;;;;;;;9.90;5.53;;;18.90;99.90;;;;;;2497104;23;20026;-73
2023/08/22 04:07:44;;;;;;;10.70;5.22;;;18.90;99.90;;;;;;2497096;23;20034;-73
2023/08/22 04:08:44;;;;;;;8.90;5.65;;;18.90;99.90;;;;;;2495465;23;20570;-73
2023/08/22 04:09:45;;;;;;;5.57;4.15;;;18.90;99.90;;;;;;2496859;23;20011;-73
2023/08/22 04:10:45;;;;;;;4.95;4.47;;;18.90;99.90;;;;;;2496851;23;20029;-73
2023/08/22 04:11:46;;;;;;;14.85;5.45;;;18.90;99.90;;;;;;2495854;23;20055;-73
2023/08/22 04:12:46;;;;;;;7.70;5.05;;;18.90;99.90;;;;;;2495978;23;20007;-73
2023/08/22 04:13:47;;;;;;;7.93;4.75;;;18.90;99.90;;;;;;2482559;23;20031;-73
2023/08/22 04:14:47;;;;;;;8.85;5.07;;;18.90;99.90;;;;;;2484638;23;20014;-73
2023/08/22 04:15:48;;;;;;;8.57;5.45;;;18.80;99.90;;;;;;2496086;23;20030;-73
2023/08/22 04:16:49;;;;;;;8.25;5.00;;;18.80;99.90;;;;;;2496869;23;20007;-73
2023/08/22 04:17:50;;;;;;;7.47;5.00;;;18.80;99.90;;;;;;2496843;23;20007;-73
2023/08/22 04:18:50;;;;;;;9.63;4.97;;;18.80;99.90;;;;;;2496643;23;20381;-73
2023/08/22 04:19:51;;;;;;;8.05;5.35;;;18.80;99.90;;;;;;2496855;23;20042;-73
2023/08/22 04:20:51;;;;;;;6.05;4.70;;;18.80;99.90;;;;;;2496807;23;20007;-73
2023/08/22 04:21:52;;;;;;;8.55;5.10;;;18.80;99.90;;;;;;2483148;23;20781;-73
2023/08/22 04:22:52;;;;;;;8.90;5.05;;;18.80;99.90;;;;;;2483641;23;20008;-73
2023/08/22 04:23:53;;;;;;;7.05;4.80;;;18.80;99.90;;;;;;2495947;23;20015;-73
2023/08/22 04:24:53;;;;;;;7.43;4.70;;;18.80;99.90;;;;;;2483654;23;20008;-73
2023/08/22 04:25:54;;;;;;;9.95;5.63;;;18.80;99.90;;;;;;2484493;23;20008;-73
2023/08/22 04:26:54;;;;;;;7.13;4.97;;;18.80;99.90;;;;;;2483796;23;20088;-73
2023/08/22 04:27:55;;;;;;;8.00;5.53;;;18.80;99.90;;;;;;2484350;23;20008;-73
2023/08/22 04:28:55;;;;;;;6.30;4.82;;;18.80;99.90;;;;;;2496777;23;20059;-73
2023/08/22 04:29:56;;;;;;;7.10;4.70;;;18.80;99.90;;;;;;2496617;23;19999;-73
2023/08/22 04:30:57;;;;;;;5.70;4.60;;;18.70;99.90;;;;;;2496825;23;20453;-73
2023/08/22 04:32:00;;;;;;;5.95;5.10;;;18.70;99.90;;;;;;2495104;23;20531;-73
2023/08/22 04:33:00;;;;;;;8.50;5.70;;;18.70;99.90;;;;;;2495987;23;20042;-73
2023/08/22 04:34:01;;;;;;;8.68;5.40;;;18.70;99.90;;;;;;2496552;23;20015;-73
2023/08/22 04:35:02;;;;;;;6.78;5.53;;;18.70;99.90;;;;;;2482824;23;20032;-73
2023/08/22 04:36:03;;;;;;;8.82;5.18;;;18.70;99.90;;;;;;2484322;23;20004;-73
2023/08/22 04:37:04;;;;;;;9.68;4.72;;;18.70;99.90;;;;;;2483671;23;20452;-73
2023/08/22 04:38:05;;;;;;;10.25;5.05;;;18.70;99.90;;;;;;2495833;23;20400;-73
2023/08/22 04:39:05;;;;;;;5.60;4.63;;;18.70;99.90;;;;;;2496620;23;20019;-73
2023/08/22 04:40:06;;;;;;;10.98;4.97;;;18.70;99.90;;;;;;2496295;23;20003;-73
2023/08/22 04:41:07;;;;;;;9.75;6.93;;;18.70;99.90;;;;;;2496629;23;20424;-73
2023/08/22 04:42:07;;;;;;;9.32;5.80;;;18.70;99.90;;;;;;2495216;23;20502;-73
2023/08/22 04:43:08;;;;;;;5.00;4.60;;;18.70;99.90;;;;;;2483699;23;20008;-73
2023/08/22 04:44:09;;;;;;;6.35;5.22;;;18.70;99.90;;;;;;2484334;23;20000;-73
2023/08/22 04:45:09;;;;;;;10.32;5.32;;;18.70;99.90;;;;;;2496217;23;20007;-73
2023/08/22 04:46:12;;;;;;;8.23;5.50;;;18.70;99.90;;;;;;2483564;23;20046;-73
2023/08/22 04:47:12;;;;;;;8.15;5.40;;;18.70;99.90;;;;;;2484409;23;20000;-73
2023/08/22 04:48:13;;;;;;;8.25;6.30;;;18.70;99.90;;;;;;2496414;23;19995;-72
2023/08/22 04:49:13;;;;;;;13.02;6.55;;;18.70;99.90;;;;;;2496756;23;20373;-73
2023/08/22 04:50:14;;;;;;;11.02;6.20;;;18.70;99.90;;;;;;2496697;23;20091;-73
2023/08/22 04:51:15;;;;;;;8.55;6.80;;;18.70;99.90;;;;;;2496016;23;20007;-73
2023/08/22 04:52:16;;;;;;;8.25;6.45;;;18.80;99.90;;;;;;2495885;23;20079;-73
2023/08/22 04:53:17;;;;;;;6.65;5.53;;;18.80;99.90;;;;;;2496906;23;20010;-73
2023/08/22 04:54:17;;;;;;;8.90;6.47;;;18.80;99.90;;;;;;2496005;23;20009;-73
2023/08/22 04:55:18;;;;;;;10.13;6.88;;;18.80;99.90;;;;;;2484304;23;20004;-73
2023/08/22 04:56:19;;;;;;;8.07;5.85;;;18.80;99.90;;;;;;2483400;23;20011;-73
2023/08/22 04:57:21;;;;;;;6.72;5.35;;;18.80;99.90;;;;;;2496598;23;20340;-73
2023/08/22 04:58:21;;;;;;;7.30;6.20;;;18.80;99.90;;;;;;2496270;23;20003;-73
2023/08/22 04:59:22;;;;;;;6.38;5.20;;;18.80;99.90;;;;;;2495062;23;20706;-73
2023/08/22 05:00:23;;;;;;;17.20;6.43;;;18.80;99.90;;;;;;2495982;23;20421;-73
2023/08/22 05:01:23;;;;;;;12.63;6.25;;;18.80;99.90;;;;;;2495848;23;20138;-73
2023/08/22 05:02:24;;;;;;;7.68;5.30;;;18.80;99.90;;;;;;2495713;23;20011;-73
2023/08/22 05:03:25;;;;;;;6.00;5.22;;;18.80;99.90;;;;;;2497190;23;20086;-73
2023/08/22 05:04:25;;;;;;;6.80;5.65;;;18.80;99.90;;;;;;2483362;23;20034;-73
2023/08/22 05:05:26;;;;;;;7.38;5.65;;;18.80;99.90;;;;;;2484117;23;20010;-73
2023/08/22 05:06:27;;;;;;;8.82;6.03;;;18.80;99.90;;;;;;2496132;23;20007;-72
2023/08/22 05:07:27;;;;;;;7.93;6.50;;;18.80;99.90;;;;;;2496299;23;20690;-73
2023/08/22 05:08:28;;;;;;;8.02;5.90;;;18.80;99.90;;;;;;2496401;23;20074;-73
2023/08/22 05:09:28;;;;;;;8.98;6.43;;;18.80;99.90;;;;;;2496516;23;20086;-73
2023/08/22 05:10:29;;;;;;;6.95;5.32;;;18.80;99.90;;;;;;2495714;23;20492;-73
2023/08/22 05:11:29;;;;;;;10.82;6.53;;;18.80;99.90;;;;;;2496704;23;20309;-73
2023/08/22 05:12:30;;;;;;;8.73;5.97;;;18.90;99.90;;;;;;2482309;23;20096;-73
2023/08/22 05:13:30;;;;;;;12.95;5.60;;;18.90;99.90;;;;;;2482828;23;20015;-73
2023/08/22 05:14:33;;;;;;;8.30;6.80;;;18.90;99.90;;;;;;2496525;23;20078;-73
2023/08/22 05:15:33;;;;;;;9.55;7.05;;;18.90;99.90;;;;;;2496459;23;20070;-73
2023/08/22 05:16:34;;;;;;;10.48;6.78;;;18.90;99.90;;;;;;2496247;23;20135;-73
2023/08/22 05:17:35;;;;;;;11.60;6.68;;;18.90;99.90;;;;;;2496885;23;21006;-73
2023/08/22 05:18:35;;;;;;;10.55;7.80;;;18.90;99.90;;;;;;2496190;23;20357;-73